createdAt,value
2019-06-15T00:00:36.766Z,7.50
2019-06-15T00:03:08.282Z,7.87
2019-06-15T00:05:38.992Z,8.17
2019-06-15T00:08:12.432Z,8.90
2019-06-15T00:10:44.548Z,12.27
2019-06-15T00:13:19.614Z,10.60
2019-06-15T00:15:51.435Z,8.60
2019-06-15T00:18:28.245Z,8.70
2019-06-15T00:21:01.601Z,9.07
2019-06-15T00:23:40.921Z,8.67
2019-06-15T00:26:14.710Z,9.10
2019-06-15T00:28:45.448Z,8.40
2019-06-15T00:31:16.652Z,9.83
2019-06-15T00:33:46.954Z,13.30
2019-06-15T00:36:19.034Z,9.77
2019-06-15T00:38:49.799Z,8.77
2019-06-15T00:41:20.960Z,8.93
2019-06-15T00:43:55.211Z,9.57
2019-06-15T00:46:26.089Z,10.57
2019-06-15T00:48:59.374Z,9.23
2019-06-15T00:51:34.923Z,8.80
2019-06-15T00:54:05.516Z,8.33
2019-06-15T00:56:36.963Z,9.30
2019-06-15T00:59:11.092Z,8.03
2019-06-15T01:01:41.340Z,9.57
2019-06-15T01:04:16.819Z,9.70
2019-06-15T01:06:56.614Z,9.53
2019-06-15T01:09:27.160Z,11.03
2019-06-15T01:11:57.608Z,11.07
2019-06-15T01:14:28.060Z,12.70
2019-06-15T01:16:58.682Z,10.47
2019-06-15T01:19:37.142Z,11.33
2019-06-15T01:22:07.869Z,8.50
2019-06-15T01:24:37.578Z,11.37
2019-06-15T01:27:10.628Z,10.40
2019-06-15T01:29:40.360Z,9.73
2019-06-15T01:32:10.020Z,10.83
2019-06-15T01:34:39.685Z,10.43
2019-06-15T01:37:09.438Z,10.43
2019-06-15T01:39:39.312Z,10.50
2019-06-15T01:42:09.039Z,12.40
2019-06-15T01:44:38.812Z,12.07
2019-06-15T01:47:08.572Z,11.77
2019-06-15T01:49:38.332Z,12.17
2019-06-15T01:52:08.117Z,11.20
2019-06-15T01:54:37.866Z,11.20
2019-06-15T01:57:08.621Z,11.63
2019-06-15T01:59:38.328Z,14.60
2019-06-15T02:02:08.124Z,11.30
2019-06-15T02:04:37.903Z,11.00
2019-06-15T02:07:07.625Z,13.07
2019-06-15T02:09:38.770Z,13.27
2019-06-15T02:12:08.585Z,14.13
2019-06-15T02:14:38.281Z,12.03
2019-06-15T02:17:07.960Z,13.83
2019-06-15T02:19:37.617Z,12.07
2019-06-15T02:22:07.322Z,12.90
2019-06-15T02:24:36.992Z,12.37
2019-06-15T02:27:06.778Z,12.07
2019-06-15T02:29:36.447Z,11.70
2019-06-15T02:32:06.312Z,11.37
2019-06-15T02:34:35.971Z,12.10
2019-06-15T02:37:05.773Z,11.67
2019-06-15T02:39:35.533Z,11.80
2019-06-15T02:42:05.507Z,13.13
2019-06-15T02:44:35.315Z,11.27
2019-06-15T02:47:05.095Z,11.97
2019-06-15T02:49:34.795Z,12.97
2019-06-15T02:52:04.648Z,11.37
2019-06-15T02:54:34.495Z,11.30
2019-06-15T02:57:04.138Z,12.10
2019-06-15T02:59:33.931Z,13.83
2019-06-15T03:02:03.705Z,10.87
2019-06-15T03:04:33.439Z,12.10
2019-06-15T03:07:03.102Z,11.63
2019-06-15T03:09:32.813Z,14.37
2019-06-15T03:12:02.542Z,12.43
2019-06-15T03:14:32.156Z,12.57
2019-06-15T03:17:01.799Z,11.70
2019-06-15T03:19:31.405Z,13.23
2019-06-15T03:22:01.053Z,14.50
2019-06-15T03:24:30.684Z,11.87
2019-06-15T03:27:00.469Z,14.07
2019-06-15T03:29:30.213Z,12.47
2019-06-15T03:31:59.909Z,12.50
2019-06-15T03:34:29.669Z,12.37
2019-06-15T03:36:59.419Z,13.13
2019-06-15T03:39:29.199Z,11.83
2019-06-15T03:41:59.249Z,13.73
2019-06-15T03:44:28.948Z,14.50
2019-06-15T03:46:58.628Z,11.97
2019-06-15T03:49:28.327Z,12.17
2019-06-15T03:51:58.033Z,12.67
2019-06-15T03:54:27.811Z,11.20
2019-06-15T03:56:57.586Z,12.73
2019-06-15T03:59:27.274Z,11.63
2019-06-15T04:01:56.940Z,14.87
2019-06-15T04:04:26.634Z,12.13
2019-06-15T04:06:56.345Z,11.70
2019-06-15T04:09:26.256Z,12.10
2019-06-15T04:11:55.924Z,12.40
2019-06-15T04:14:25.575Z,13.27
2019-06-15T04:16:55.409Z,12.07
2019-06-15T04:19:25.072Z,14.13
2019-06-15T04:21:56.172Z,11.00
2019-06-15T04:24:25.831Z,12.27
2019-06-15T04:26:55.506Z,12.90
2019-06-15T04:29:25.328Z,11.40
2019-06-15T04:31:54.964Z,11.93
2019-06-15T04:34:24.602Z,13.57
2019-06-15T04:36:54.740Z,14.27
2019-06-15T04:39:24.387Z,14.20
2019-06-15T04:41:54.008Z,15.30
2019-06-15T04:44:23.604Z,13.32
2019-06-15T04:46:53.332Z,14.50
2019-06-15T04:49:23.049Z,18.07
2019-06-15T04:51:52.708Z,13.30
2019-06-15T04:54:22.545Z,12.50
2019-06-15T04:56:52.344Z,12.90
2019-06-15T04:59:22.131Z,15.48
2019-06-15T05:01:51.907Z,17.12
2019-06-15T05:04:21.723Z,17.53
2019-06-15T05:06:51.490Z,16.50
2019-06-15T05:09:21.450Z,16.17
2019-06-15T05:11:51.493Z,17.95
2019-06-15T05:14:21.548Z,16.10
2019-06-15T05:16:53.397Z,18.90
2019-06-15T05:19:23.280Z,17.85
2019-06-15T05:21:53.349Z,17.25
2019-06-15T05:24:23.308Z,19.48
2019-06-15T05:27:05.596Z,17.43
2019-06-15T05:29:24.885Z,16.85
2019-06-15T05:31:54.840Z,16.95
2019-06-15T05:34:24.676Z,16.73
2019-06-15T05:36:54.336Z,17.67
2019-06-15T05:39:23.952Z,17.02
2019-06-15T05:41:53.599Z,16.20
2019-06-15T05:44:23.308Z,17.17
2019-06-15T05:46:53.084Z,17.40
2019-06-15T05:49:23.455Z,16.10
2019-06-15T05:51:53.487Z,20.32
2019-06-15T05:54:23.220Z,16.27
2019-06-15T05:56:52.849Z,16.40
2019-06-15T05:59:22.448Z,14.75
2019-06-15T06:01:52.155Z,14.03
2019-06-15T06:04:21.938Z,13.53
2019-06-15T06:06:51.662Z,13.90
2019-06-15T06:09:21.414Z,13.30
2019-06-15T06:11:51.063Z,11.50
2019-06-15T06:14:20.893Z,14.25
2019-06-15T06:16:50.553Z,15.13
2019-06-15T06:19:20.350Z,13.70
2019-06-15T06:21:50.142Z,12.93
2019-06-15T06:24:19.841Z,15.43
2019-06-15T06:26:49.524Z,17.73
2019-06-15T06:29:19.414Z,14.40
2019-06-15T06:31:49.074Z,16.35
2019-06-15T06:34:18.663Z,16.62
2019-06-15T06:36:48.350Z,18.65
2019-06-15T06:39:18.123Z,14.70
2019-06-15T06:41:47.766Z,16.32
2019-06-15T06:44:17.518Z,21.60
2019-06-15T06:46:47.377Z,25.43
2019-06-15T06:49:17.172Z,29.48
2019-06-15T06:51:48.026Z,29.95
2019-06-15T06:54:17.860Z,30.62
2019-06-15T06:56:48.518Z,32.10
2019-06-15T06:59:18.568Z,32.28
2019-06-15T07:01:48.622Z,35.35
2019-06-15T07:04:18.272Z,36.58
2019-06-15T07:06:47.923Z,39.53
2019-06-15T07:09:17.773Z,44.65
2019-06-15T07:11:47.582Z,45.43
2019-06-15T07:14:17.682Z,42.53
2019-06-15T07:16:47.436Z,45.17
2019-06-15T07:19:17.211Z,43.57
2019-06-15T07:21:46.885Z,50.60
2019-06-15T07:24:16.489Z,40.03
2019-06-15T07:26:46.211Z,40.17
2019-06-15T07:29:15.964Z,35.77
2019-06-15T07:31:59.973Z,38.17
2019-06-15T07:34:29.975Z,34.43
2019-06-15T07:37:01.602Z,29.47
2019-06-15T07:39:31.010Z,30.07
2019-06-15T07:42:00.733Z,29.30
2019-06-15T07:44:30.406Z,31.57
2019-06-15T07:47:00.112Z,30.93
2019-06-15T07:49:29.736Z,32.57
2019-06-15T07:51:59.625Z,32.10
2019-06-15T07:54:29.299Z,31.93
2019-06-15T07:56:59.033Z,30.93
2019-06-15T07:59:28.744Z,30.97
2019-06-15T08:01:58.525Z,31.93
2019-06-15T08:04:28.281Z,30.83
2019-06-15T08:06:57.942Z,27.23
2019-06-15T08:09:27.727Z,26.20
2019-06-15T08:11:57.498Z,27.33
2019-06-15T08:14:27.382Z,25.97
2019-06-15T08:16:57.169Z,25.90
2019-06-15T08:19:26.970Z,29.00
2019-06-15T08:21:56.699Z,30.53
2019-06-15T08:24:26.516Z,28.60
2019-06-15T08:26:57.190Z,32.98
2019-06-15T08:29:26.976Z,32.85
2019-06-15T08:31:56.771Z,30.80
2019-06-15T08:34:26.455Z,30.48
2019-06-15T08:36:56.112Z,30.70
2019-06-15T08:39:26.082Z,28.95
2019-06-15T08:41:57.021Z,27.60
2019-06-15T08:44:26.741Z,25.68
2019-06-15T08:46:59.218Z,25.43
2019-06-15T08:49:27.883Z,24.65
2019-06-15T08:51:57.844Z,20.70
2019-06-15T08:54:27.556Z,19.02
2019-06-15T08:56:57.367Z,14.65
2019-06-15T08:59:27.031Z,13.15
2019-06-15T09:01:56.827Z,11.05
2019-06-15T09:04:26.463Z,9.08
2019-06-15T09:06:56.154Z,9.03
2019-06-15T09:09:26.866Z,7.40
2019-06-15T09:11:56.559Z,7.08
2019-06-15T09:14:26.242Z,7.70
2019-06-15T09:16:55.984Z,7.05
2019-06-15T09:19:25.742Z,8.53
2019-06-15T09:21:55.425Z,5.87
2019-06-15T09:24:25.242Z,7.22
2019-06-15T09:26:54.930Z,6.30
2019-06-15T09:29:24.633Z,5.35
2019-06-15T09:31:54.393Z,6.85
2019-06-15T09:34:24.241Z,5.05
2019-06-15T09:36:55.126Z,6.85
2019-06-15T09:39:24.965Z,4.20
2019-06-15T09:41:54.866Z,4.75
2019-06-15T09:44:24.493Z,5.00
2019-06-15T09:46:54.928Z,5.58
2019-06-15T09:49:24.837Z,7.22
2019-06-15T09:51:54.538Z,5.55
2019-06-15T09:54:24.186Z,4.50
2019-06-15T09:56:54.034Z,4.60
2019-06-15T09:59:26.307Z,4.33
2019-06-15T10:01:55.904Z,4.92
2019-06-15T10:04:27.272Z,6.10
2019-06-15T10:06:58.109Z,4.20
2019-06-15T10:09:27.798Z,2.37
2019-06-15T10:11:57.940Z,2.87
2019-06-15T10:14:27.792Z,4.30
2019-06-15T10:16:57.686Z,7.05
2019-06-15T10:19:27.276Z,4.72
2019-06-15T10:21:57.238Z,5.10
2019-06-15T10:24:27.847Z,2.62
2019-06-15T10:26:57.565Z,2.80
2019-06-15T10:29:41.291Z,3.77
2019-06-15T10:31:59.052Z,4.37
2019-06-15T10:34:28.910Z,3.98
2019-06-15T10:36:58.659Z,3.12
2019-06-15T10:39:28.337Z,4.28
2019-06-15T10:41:57.988Z,7.25
2019-06-15T10:44:28.032Z,3.92
2019-06-15T10:46:58.001Z,4.03
2019-06-15T10:49:28.090Z,5.78
2019-06-15T10:51:57.813Z,3.92
2019-06-15T10:54:27.670Z,4.03
2019-06-15T10:56:58.159Z,5.58
2019-06-15T10:59:30.102Z,4.95
2019-06-15T11:01:59.862Z,5.58
2019-06-15T11:04:29.618Z,5.45
2019-06-15T11:07:00.278Z,6.33
2019-06-15T11:09:30.115Z,7.15
2019-06-15T11:11:59.919Z,7.72
2019-06-15T11:14:29.662Z,7.40
2019-06-15T11:17:00.670Z,6.78
2019-06-15T11:19:30.304Z,6.62
2019-06-15T11:21:59.995Z,7.72
2019-06-15T11:24:29.735Z,7.95
2019-06-15T11:26:59.369Z,8.23
2019-06-15T11:29:29.101Z,8.88
2019-06-15T11:31:58.829Z,10.68
2019-06-15T11:34:28.501Z,7.60
2019-06-15T11:36:58.255Z,6.12
2019-06-15T11:42:03.271Z,5.62
2019-06-15T11:44:32.988Z,5.00
2019-06-15T11:47:02.732Z,4.35
2019-06-15T11:49:32.510Z,7.24
2019-06-15T11:52:03.507Z,5.80
2019-06-15T11:54:33.307Z,6.53
2019-06-15T11:57:03.102Z,6.40
2019-06-15T11:59:33.908Z,5.15
2019-06-15T12:02:03.617Z,5.40
2019-06-15T12:04:33.627Z,4.22
2019-06-15T12:07:03.876Z,5.30
2019-06-15T12:09:33.764Z,3.53
2019-06-15T12:12:03.488Z,5.25
2019-06-15T12:14:33.302Z,3.30
2019-06-15T12:17:03.025Z,2.30
2019-06-15T12:19:33.018Z,3.08
2019-06-15T12:22:02.829Z,3.40
2019-06-15T12:24:32.686Z,2.72
2019-06-15T12:27:02.334Z,2.60
2019-06-15T12:29:33.179Z,2.25
2019-06-15T12:32:02.900Z,1.43
2019-06-15T12:34:32.694Z,3.83
2019-06-15T12:37:03.185Z,1.20
2019-06-15T12:39:32.988Z,1.40
2019-06-15T12:42:02.822Z,1.30
2019-06-15T12:44:32.592Z,1.17
2019-06-15T12:47:02.366Z,1.42
2019-06-15T12:49:32.382Z,1.87
2019-06-15T12:52:02.647Z,3.63
2019-06-15T12:54:32.399Z,1.70
2019-06-15T12:57:02.221Z,2.30
2019-06-15T12:59:32.331Z,2.15
2019-06-15T13:02:02.048Z,2.00
2019-06-15T13:04:31.954Z,3.58
2019-06-15T13:07:01.813Z,2.25
2019-06-15T13:09:33.554Z,2.12
2019-06-15T13:12:03.339Z,2.08
2019-06-15T13:14:33.262Z,3.93
2019-06-15T13:17:03.117Z,2.90
2019-06-15T13:19:33.064Z,1.87
2019-06-15T13:22:06.204Z,4.55
2019-06-15T13:24:34.425Z,2.60
2019-06-15T13:27:04.313Z,3.63
2019-06-15T13:29:34.247Z,2.85
2019-06-15T13:32:04.202Z,3.13
2019-06-15T13:34:34.014Z,2.50
2019-06-15T13:37:04.121Z,2.87
2019-06-15T13:39:33.976Z,3.27
2019-06-15T13:42:03.734Z,2.10
2019-06-15T13:44:33.509Z,1.77
2019-06-15T13:47:03.520Z,3.17
2019-06-15T13:49:33.309Z,2.27
2019-06-15T13:52:03.161Z,2.30
2019-06-15T13:54:34.475Z,2.58
2019-06-15T13:57:04.298Z,3.10
2019-06-15T13:59:34.555Z,2.30
2019-06-15T14:02:05.485Z,4.70
2019-06-15T14:04:35.267Z,2.08
2019-06-15T14:07:05.529Z,3.06
2019-06-15T14:09:35.243Z,2.15
2019-06-15T14:12:07.012Z,3.42
2019-06-15T14:14:37.381Z,2.98
2019-06-15T14:17:08.903Z,2.08
2019-06-15T14:19:38.822Z,5.37
2019-06-15T14:22:08.798Z,2.20
2019-06-15T14:24:38.615Z,2.40
2019-06-15T14:27:08.511Z,4.85
2019-06-15T14:29:39.131Z,3.86
2019-06-15T14:32:08.998Z,3.83
2019-06-15T14:34:39.873Z,3.20
2019-06-15T14:37:11.234Z,2.63
2019-06-15T14:39:41.092Z,2.42
2019-06-15T14:42:11.324Z,2.40
2019-06-15T14:44:41.113Z,2.83
2019-06-15T14:47:11.958Z,3.22
2019-06-15T14:49:41.792Z,2.87
2019-06-15T14:52:11.907Z,2.55
2019-06-15T14:54:41.664Z,2.60
2019-06-15T14:57:11.352Z,2.72
2019-06-15T14:59:55.382Z,3.35
2019-06-15T15:02:14.257Z,4.83
2019-06-15T15:04:44.270Z,3.17
2019-06-15T15:07:16.930Z,2.62
2019-06-15T15:09:49.925Z,2.92
2019-06-15T15:12:20.870Z,3.72
2019-06-15T15:14:50.648Z,2.30
2019-06-15T15:17:20.799Z,2.90
2019-06-15T15:19:50.785Z,3.98
2019-06-15T15:22:22.571Z,3.60
2019-06-15T15:24:52.234Z,2.47
2019-06-15T15:27:22.285Z,2.80
2019-06-15T15:29:52.076Z,3.20
2019-06-15T15:32:27.109Z,3.50
2019-06-15T15:34:56.014Z,2.50
2019-06-15T15:37:27.090Z,3.50
2019-06-15T15:39:57.034Z,2.98
2019-06-15T15:42:27.162Z,2.47
2019-06-15T15:44:57.111Z,2.50
2019-06-15T15:47:27.712Z,4.37
2019-06-15T15:49:57.767Z,3.83
2019-06-15T15:52:29.126Z,2.60
2019-06-15T15:54:58.822Z,33.48
2019-06-15T15:57:29.282Z,208.05
2019-06-15T15:59:59.049Z,222.12
2019-06-15T16:02:44.547Z,7.53
2019-06-15T16:05:00.106Z,13.57
2019-06-15T16:07:30.046Z,3.57
2019-06-15T16:09:59.819Z,74.92
2019-06-15T16:12:29.659Z,99.85
2019-06-15T16:14:59.408Z,89.37
2019-06-15T16:17:29.117Z,4.17
2019-06-15T16:19:58.930Z,20.32
2019-06-15T16:22:28.791Z,5.03
2019-06-15T16:24:58.540Z,3.50
2019-06-15T16:27:29.189Z,4.35
2019-06-15T16:29:58.959Z,12.53
2019-06-15T16:32:28.985Z,15.78
2019-06-15T16:34:59.042Z,7.58
2019-06-15T16:37:28.893Z,7.95
2019-06-15T16:39:58.956Z,9.73
2019-06-15T16:42:28.713Z,6.42
2019-06-15T16:44:58.444Z,5.62
2019-06-15T16:47:28.256Z,7.67
2019-06-15T16:49:57.888Z,5.12
2019-06-15T16:52:27.647Z,6.00
2019-06-15T16:54:57.401Z,8.40
2019-06-15T16:57:28.159Z,3.77
2019-06-15T16:59:57.969Z,3.85
2019-06-15T17:02:27.695Z,3.75
2019-06-15T17:04:57.374Z,3.63
2019-06-15T17:07:27.141Z,4.62
2019-06-15T17:09:57.008Z,5.53
2019-06-15T17:12:26.668Z,6.30
2019-06-15T17:14:56.356Z,5.55
2019-06-15T17:17:26.710Z,3.90
2019-06-15T17:19:57.005Z,5.40
2019-06-15T17:22:27.793Z,4.30
2019-06-15T17:24:57.462Z,4.28
2019-06-15T17:27:27.542Z,4.92
2019-06-15T17:29:57.981Z,3.87
2019-06-15T17:32:27.644Z,3.30
2019-06-15T17:34:57.310Z,4.70
2019-06-15T17:37:27.069Z,4.10
2019-06-15T17:39:56.733Z,5.10
2019-06-15T17:42:26.526Z,5.22
2019-06-15T17:44:57.201Z,3.65
2019-06-15T17:47:27.027Z,4.83
2019-06-15T17:49:56.827Z,3.62
2019-06-15T17:52:27.353Z,4.87
2019-06-15T17:54:57.176Z,4.72
2019-06-15T17:57:27.445Z,3.40
2019-06-15T17:59:57.438Z,5.60
2019-06-15T18:02:27.328Z,4.20
2019-06-15T18:04:57.019Z,3.45
2019-06-15T18:07:26.704Z,5.08
2019-06-15T18:09:56.428Z,5.00
2019-06-15T18:12:27.581Z,4.62
2019-06-15T18:14:58.375Z,5.44
2019-06-15T18:17:28.036Z,4.42
2019-06-15T18:19:57.888Z,5.03
2019-06-15T18:22:27.589Z,3.50
2019-06-15T18:24:57.366Z,3.72
2019-06-15T18:27:27.922Z,3.70
2019-06-15T18:29:57.647Z,4.42
2019-06-15T18:32:27.951Z,5.67
2019-06-15T18:34:57.629Z,5.00
2019-06-15T18:37:27.448Z,4.92
2019-06-15T18:39:57.157Z,6.17
2019-06-15T18:42:27.350Z,5.15
2019-06-15T18:44:58.884Z,3.50
2019-06-15T18:47:28.714Z,3.92
2019-06-15T18:49:58.507Z,3.42
2019-06-15T18:52:28.254Z,3.67
2019-06-15T18:54:57.956Z,3.90
2019-06-15T18:57:27.632Z,3.73
2019-06-15T18:59:57.426Z,4.53
2019-06-15T19:02:27.195Z,4.15
2019-06-15T19:04:56.867Z,6.10
2019-06-15T19:07:27.001Z,4.85
2019-06-15T19:09:56.773Z,4.50
2019-06-15T19:12:26.517Z,6.97
2019-06-15T19:14:56.272Z,7.28
2019-06-15T19:17:25.993Z,8.05
2019-06-15T19:19:57.242Z,6.65
2019-06-15T19:22:27.184Z,6.22
2019-06-15T19:24:57.369Z,5.97
2019-06-15T19:27:27.103Z,4.97
2019-06-15T19:29:56.752Z,5.65
2019-06-15T19:32:27.283Z,5.18
2019-06-15T19:34:57.081Z,6.53
2019-06-15T19:37:26.946Z,6.53
2019-06-15T19:39:56.648Z,5.60
2019-06-15T19:42:26.355Z,5.28
2019-06-15T19:44:56.271Z,4.40
2019-06-15T19:47:26.632Z,4.92
2019-06-15T19:49:56.965Z,5.20
2019-06-15T19:52:26.704Z,5.83
2019-06-15T19:54:56.492Z,5.42
2019-06-15T19:57:27.126Z,6.35
2019-06-15T19:59:58.242Z,6.87
2019-06-15T20:02:28.921Z,5.20
2019-06-15T20:05:03.665Z,7.55
2019-06-15T20:07:31.174Z,9.10
2019-06-15T20:10:00.866Z,7.37
2019-06-15T20:12:31.802Z,6.60
2019-06-15T20:15:01.668Z,6.53
2019-06-15T20:17:31.347Z,7.33
2019-06-15T20:20:01.355Z,6.20
2019-06-15T20:22:32.099Z,6.33
2019-06-15T20:25:01.951Z,6.50
2019-06-15T20:27:31.574Z,7.85
2019-06-15T20:30:01.305Z,7.60
2019-06-15T20:32:31.135Z,6.17
2019-06-15T20:35:16.233Z,5.85
2019-06-15T20:37:32.710Z,6.30
2019-06-15T20:40:02.482Z,6.58
2019-06-15T20:42:32.279Z,5.77
2019-06-15T20:45:02.358Z,5.85
2019-06-15T20:47:32.143Z,7.05
2019-06-15T20:50:02.112Z,7.70
2019-06-15T20:52:33.078Z,6.33
2019-06-15T20:55:06.454Z,7.80
2019-06-15T20:57:35.554Z,7.17
2019-06-15T21:00:06.519Z,5.03
2019-06-15T21:02:37.458Z,5.70
2019-06-15T21:05:08.133Z,5.90
2019-06-15T21:07:37.909Z,5.67
2019-06-15T21:10:08.252Z,6.57
2019-06-15T21:12:39.205Z,7.10
2019-06-15T21:15:10.876Z,6.17
2019-06-15T21:17:41.650Z,7.97
2019-06-15T21:20:11.458Z,7.50
2019-06-15T21:22:41.360Z,5.67
2019-06-15T21:25:12.247Z,7.97
2019-06-15T21:27:42.042Z,10.40
2019-06-15T21:30:12.271Z,5.93
2019-06-15T21:32:42.044Z,5.67
2019-06-15T21:35:13.003Z,4.90
2019-06-15T21:37:42.656Z,7.62
2019-06-15T21:40:15.284Z,6.63
2019-06-15T21:42:46.845Z,6.58
2019-06-15T21:45:17.668Z,8.60
2019-06-15T21:47:48.535Z,6.47
2019-06-15T21:50:18.284Z,5.83
2019-06-15T21:52:48.056Z,7.60
2019-06-15T21:55:17.817Z,6.50
2019-06-15T21:57:47.553Z,7.90
2019-06-15T22:00:21.167Z,7.40
2019-06-15T22:02:52.660Z,9.27
2019-06-15T22:05:22.651Z,6.53
2019-06-15T22:07:52.961Z,6.37
2019-06-15T22:10:23.433Z,7.50
2019-06-15T22:12:53.397Z,6.58
2019-06-15T22:15:23.236Z,7.73
2019-06-15T22:17:54.001Z,8.23
2019-06-15T22:20:26.212Z,7.13
2019-06-15T22:22:56.009Z,8.20
2019-06-15T22:25:26.521Z,7.57
2019-06-15T22:27:57.248Z,9.07
2019-06-15T22:30:27.705Z,7.05
2019-06-15T22:32:57.647Z,7.50
2019-06-15T22:35:27.787Z,7.73
2019-06-15T22:37:57.587Z,7.20
2019-06-15T22:40:28.041Z,8.23
2019-06-15T22:42:59.133Z,10.43
2019-06-15T22:45:30.469Z,8.30
2019-06-15T22:48:00.238Z,9.83
2019-06-15T22:50:31.201Z,9.70
2019-06-15T22:53:03.877Z,8.57
2019-06-15T22:55:32.608Z,8.83
2019-06-15T22:58:02.462Z,10.83
2019-06-15T23:00:34.015Z,10.60
2019-06-15T23:03:06.075Z,10.20
2019-06-15T23:05:35.470Z,9.43
2019-06-15T23:08:06.954Z,11.73
2019-06-15T23:10:36.909Z,9.33
2019-06-15T23:13:06.659Z,9.27
2019-06-15T23:15:37.177Z,9.05
2019-06-15T23:18:07.409Z,8.97
2019-06-15T23:20:37.204Z,9.53
2019-06-15T23:23:08.001Z,9.10
2019-06-15T23:25:37.755Z,9.27
2019-06-15T23:28:07.487Z,8.80
2019-06-15T23:30:37.231Z,12.00
2019-06-15T23:33:06.876Z,11.63
2019-06-15T23:35:42.207Z,8.97
2019-06-15T23:38:11.985Z,11.63
2019-06-15T23:40:41.708Z,8.90
2019-06-15T23:43:11.432Z,8.77
2019-06-15T23:45:41.054Z,8.53
2019-06-15T23:48:10.962Z,9.27
2019-06-15T23:50:40.615Z,8.50
2019-06-15T23:53:10.277Z,10.58
2019-06-15T23:55:40.064Z,8.80
2019-06-15T23:58:09.947Z,8.27
